createdAt,value
2018-04-10T00:00:49.083Z,943.84
2018-04-10T00:01:49.102Z,943.84
2018-04-10T00:02:49.126Z,943.79
2018-04-10T00:03:49.148Z,943.78
2018-04-10T00:04:49.172Z,943.79
2018-04-10T00:05:49.194Z,943.77
2018-04-10T00:06:49.366Z,943.81
2018-04-10T00:07:49.240Z,943.76
2018-04-10T00:08:49.273Z,943.76
2018-04-10T00:09:49.285Z,943.78
2018-04-10T00:10:49.311Z,943.76
2018-04-10T00:11:49.330Z,943.78
2018-04-10T00:12:49.353Z,943.75
2018-04-10T00:13:49.375Z,943.79
2018-04-10T00:14:49.398Z,943.76
2018-04-10T00:15:49.421Z,943.73
2018-04-10T00:16:49.442Z,943.69
2018-04-10T00:17:49.464Z,943.7
2018-04-10T00:18:49.490Z,943.69
2018-04-10T00:19:49.510Z,943.7
2018-04-10T00:20:49.531Z,943.7
2018-04-10T00:21:49.554Z,943.68
2018-04-10T00:22:49.576Z,943.67
2018-04-10T00:23:49.597Z,943.69
2018-04-10T00:24:49.620Z,943.71
2018-04-10T00:25:49.644Z,943.65
2018-04-10T00:26:49.665Z,943.69
2018-04-10T00:27:49.687Z,943.68
2018-04-10T00:28:49.712Z,943.71
2018-04-10T00:29:49.734Z,943.7
2018-04-10T00:30:49.755Z,943.68
2018-04-10T00:31:49.779Z,943.68
2018-04-10T00:32:49.800Z,943.7
2018-04-10T00:33:49.825Z,943.71
2018-04-10T00:34:49.845Z,943.68
2018-04-10T00:35:49.867Z,943.65
2018-04-10T00:36:49.890Z,943.62
2018-04-10T00:37:49.912Z,943.65
2018-04-10T00:38:49.934Z,943.67
2018-04-10T00:39:49.957Z,943.69
2018-04-10T00:40:49.981Z,943.67
2018-04-10T00:41:50.000Z,943.65
2018-04-10T00:42:50.023Z,943.67
2018-04-10T00:43:50.046Z,943.65
2018-04-10T00:44:50.068Z,943.65
2018-04-10T00:45:50.090Z,943.66
2018-04-10T00:46:50.112Z,943.66
2018-04-10T00:47:50.135Z,943.63
2018-04-10T00:48:50.159Z,943.64
2018-04-10T00:49:50.181Z,943.64
2018-04-10T00:50:50.203Z,943.68
2018-04-10T00:51:50.224Z,943.65
2018-04-10T00:52:50.246Z,943.67
2018-04-10T00:53:50.270Z,943.68
2018-04-10T00:54:50.292Z,943.7
2018-04-10T00:55:50.315Z,943.71
2018-04-10T00:56:50.335Z,943.69
2018-04-10T00:57:50.359Z,943.69
2018-04-10T00:58:50.380Z,943.72
2018-04-10T00:59:50.405Z,943.71
2018-04-10T01:00:50.426Z,943.74
2018-04-10T01:01:50.448Z,943.72
2018-04-10T01:02:50.473Z,943.74
2018-04-10T01:03:50.492Z,943.75
2018-04-10T01:04:50.522Z,943.72
2018-04-10T01:05:50.539Z,943.72
2018-04-10T01:06:50.563Z,943.77
2018-04-10T01:07:50.582Z,943.7
2018-04-10T01:08:50.605Z,943.81
2018-04-10T01:09:50.626Z,943.73
2018-04-10T01:10:50.652Z,943.7
2018-04-10T01:11:50.675Z,943.7
2018-04-10T01:12:50.695Z,943.7
2018-04-10T01:13:50.717Z,943.65
2018-04-10T01:14:50.740Z,943.7
2018-04-10T01:15:50.762Z,943.73
2018-04-10T01:16:50.783Z,943.7
2018-04-10T01:17:50.807Z,943.73
2018-04-10T01:18:50.833Z,943.73
2018-04-10T01:19:50.850Z,943.74
2018-04-10T01:20:50.874Z,943.75
2018-04-10T01:21:50.895Z,943.71
2018-04-10T01:22:50.918Z,943.69
2018-04-10T01:23:50.939Z,943.72
2018-04-10T01:24:50.963Z,943.69
2018-04-10T01:25:50.996Z,943.71
2018-04-10T01:26:51.006Z,943.7
2018-04-10T01:27:51.029Z,943.75
2018-04-10T01:28:51.058Z,943.75
2018-04-10T01:29:51.073Z,943.74
2018-04-10T01:30:51.097Z,943.8
2018-04-10T01:31:51.119Z,943.79
2018-04-10T01:32:51.140Z,943.77
2018-04-10T01:33:51.162Z,943.79
2018-04-10T01:34:51.185Z,943.78
2018-04-10T01:35:51.207Z,943.78
2018-04-10T01:36:51.229Z,943.73
2018-04-10T01:37:51.252Z,943.78
2018-04-10T01:38:51.273Z,943.79
2018-04-10T01:39:51.294Z,943.77
2018-04-10T01:40:51.322Z,943.8
2018-04-10T01:41:51.338Z,943.79
2018-04-10T01:42:51.363Z,943.81
2018-04-10T01:43:51.382Z,943.86
2018-04-10T01:44:51.404Z,943.82
2018-04-10T01:45:51.425Z,943.83
2018-04-10T01:46:51.448Z,943.83
2018-04-10T01:47:51.470Z,943.89
2018-04-10T01:48:51.497Z,943.88
2018-04-10T01:49:51.515Z,943.9
2018-04-10T01:50:51.538Z,943.91
2018-04-10T01:51:51.559Z,943.9
2018-04-10T01:52:51.582Z,943.89
2018-04-10T01:53:51.604Z,943.88
2018-04-10T01:54:51.624Z,943.9
2018-04-10T01:55:51.645Z,943.88
2018-04-10T01:56:51.668Z,943.89
2018-04-10T01:57:51.689Z,943.83
2018-04-10T01:58:51.710Z,943.89
2018-04-10T01:59:51.733Z,943.87
2018-04-10T02:00:51.754Z,943.87
2018-04-10T02:01:51.776Z,943.88
2018-04-10T02:02:51.796Z,943.91
2018-04-10T02:03:51.819Z,943.89
2018-04-10T02:04:51.841Z,943.9
2018-04-10T02:05:51.865Z,943.95
2018-04-10T02:06:51.882Z,943.93
2018-04-10T02:07:51.904Z,943.9
2018-04-10T02:08:51.926Z,943.89
2018-04-10T02:09:51.946Z,943.88
2018-04-10T02:10:51.967Z,943.85
2018-04-10T02:11:51.998Z,943.84
2018-04-10T02:12:52.009Z,943.87
2018-04-10T02:13:52.030Z,943.83
2018-04-10T02:14:52.051Z,943.86
2018-04-10T02:15:52.073Z,943.88
2018-04-10T02:16:52.094Z,943.84
2018-04-10T02:17:52.115Z,943.87
2018-04-10T02:18:52.137Z,943.85
2018-04-10T02:19:52.162Z,943.89
2018-04-10T02:20:52.182Z,943.88
2018-04-10T02:21:52.205Z,943.87
2018-04-10T02:22:52.226Z,943.87
2018-04-10T02:23:52.249Z,943.86
2018-04-10T02:24:52.268Z,943.84
2018-04-10T02:25:52.291Z,943.85
2018-04-10T02:26:52.313Z,943.81
2018-04-10T02:27:52.333Z,943.82
2018-04-10T02:28:52.358Z,943.77
2018-04-10T02:29:52.376Z,943.72
2018-04-10T02:30:52.398Z,943.74
2018-04-10T02:31:52.419Z,943.71
2018-04-10T02:32:52.440Z,943.71
2018-04-10T02:33:52.462Z,943.69
2018-04-10T02:34:52.502Z,943.69
2018-04-10T02:35:52.504Z,943.7
2018-04-10T02:36:52.525Z,943.71
2018-04-10T02:37:52.547Z,943.71
2018-04-10T02:38:52.568Z,943.71
2018-04-10T02:39:52.589Z,943.72
2018-04-10T02:40:52.610Z,943.73
2018-04-10T02:41:52.663Z,943.7
2018-04-10T02:42:52.657Z,943.69
2018-04-10T02:43:52.673Z,943.66
2018-04-10T02:44:52.697Z,943.66
2018-04-10T02:45:52.716Z,943.69
2018-04-10T02:46:52.740Z,943.7
2018-04-10T02:47:52.759Z,943.72
2018-04-10T02:48:52.780Z,943.73
2018-04-10T02:49:52.805Z,943.75
2018-04-10T02:50:52.822Z,943.71
2018-04-10T02:51:52.844Z,943.72
2018-04-10T02:52:52.863Z,943.71
2018-04-10T02:53:52.885Z,943.67
2018-04-10T02:54:52.906Z,943.66
2018-04-10T02:55:52.933Z,943.68
2018-04-10T02:56:52.949Z,943.63
2018-04-10T02:57:52.970Z,943.67
2018-04-10T02:58:52.991Z,943.63
2018-04-10T02:59:53.012Z,943.63
2018-04-10T03:00:53.034Z,943.7
2018-04-10T03:01:53.055Z,943.63
2018-04-10T03:02:53.077Z,943.65
2018-04-10T03:03:53.100Z,943.66
2018-04-10T03:04:53.117Z,943.6
2018-04-10T03:05:53.137Z,943.66
2018-04-10T03:06:53.157Z,943.67
2018-04-10T03:07:53.178Z,943.6
2018-04-10T03:08:53.200Z,943.6
2018-04-10T03:09:53.220Z,943.63
2018-04-10T03:10:53.243Z,943.63
2018-04-10T03:11:53.262Z,943.64
2018-04-10T03:12:53.285Z,943.64
2018-04-10T03:13:53.305Z,943.62
2018-04-10T03:14:53.326Z,943.61
2018-04-10T03:15:53.346Z,943.52
2018-04-10T03:16:53.367Z,943.53
2018-04-10T03:17:53.392Z,943.53
2018-04-10T03:18:53.410Z,943.51
2018-04-10T03:19:53.432Z,943.54
2018-04-10T03:20:53.455Z,943.55
2018-04-10T03:21:53.475Z,943.55
2018-04-10T03:22:53.494Z,943.55
2018-04-10T03:23:53.566Z,943.55
2018-04-10T03:24:53.537Z,943.54
2018-04-10T03:25:53.561Z,943.56
2018-04-10T03:26:53.579Z,943.58
2018-04-10T03:27:53.601Z,943.58
2018-04-10T03:28:53.667Z,943.61
2018-04-10T03:29:53.641Z,943.61
2018-04-10T03:30:53.662Z,943.62
2018-04-10T03:31:53.682Z,943.65
2018-04-10T03:32:53.704Z,943.61
2018-04-10T03:33:53.725Z,943.61
2018-04-10T03:34:53.746Z,943.58
2018-04-10T03:35:53.790Z,943.61
2018-04-10T03:36:53.789Z,943.58
2018-04-10T03:37:53.808Z,943.56
2018-04-10T03:38:53.829Z,943.54
2018-04-10T03:39:53.900Z,943.54
2018-04-10T03:40:53.870Z,943.5
2018-04-10T03:41:53.892Z,943.48
2018-04-10T03:42:53.912Z,943.54
2018-04-10T03:43:53.933Z,943.5
2018-04-10T03:44:53.954Z,943.53
2018-04-10T03:45:53.975Z,943.53
2018-04-10T03:46:53.995Z,943.56
2018-04-10T03:47:54.036Z,943.52
2018-04-10T03:48:54.039Z,943.55
2018-04-10T03:49:54.058Z,943.56
2018-04-10T03:50:54.084Z,943.57
2018-04-10T03:51:54.099Z,943.54
2018-04-10T03:52:54.126Z,943.53
2018-04-10T03:53:54.143Z,943.51
2018-04-10T03:54:54.312Z,943.45
2018-04-10T03:55:54.184Z,943.51
2018-04-10T03:56:54.202Z,943.47
2018-04-10T03:57:54.227Z,943.43
2018-04-10T03:58:54.244Z,943.45
2018-04-10T03:59:54.264Z,943.44
2018-04-10T04:00:54.283Z,943.43
2018-04-10T04:01:54.308Z,943.38
2018-04-10T04:02:54.324Z,943.4
2018-04-10T04:03:54.345Z,943.4
2018-04-10T04:04:54.373Z,943.36
2018-04-10T04:05:54.386Z,943.4
2018-04-10T04:06:54.405Z,943.38
2018-04-10T04:07:54.428Z,943.4
2018-04-10T04:08:54.490Z,943.39
2018-04-10T04:09:54.522Z,943.37
2018-04-10T04:10:54.487Z,943.35
2018-04-10T04:11:54.509Z,943.35
2018-04-10T04:12:54.545Z,943.36
2018-04-10T04:13:54.550Z,943.34
2018-04-10T04:14:54.570Z,943.31
2018-04-10T04:15:54.601Z,943.28
2018-04-10T04:16:54.630Z,943.29
2018-04-10T04:17:54.630Z,943.3
2018-04-10T04:18:54.651Z,943.31
2018-04-10T04:19:54.672Z,943.27
2018-04-10T04:20:54.696Z,943.3
2018-04-10T04:21:54.711Z,943.29
2018-04-10T04:22:54.731Z,943.31
2018-04-10T04:23:54.752Z,943.26
2018-04-10T04:24:54.821Z,943.29
2018-04-10T04:25:54.792Z,943.28
2018-04-10T04:26:54.813Z,943.25
2018-04-10T04:27:54.833Z,943.23
2018-04-10T04:28:54.855Z,943.22
2018-04-10T04:29:54.973Z,943.19
2018-04-10T04:30:54.897Z,943.19
2018-04-10T04:31:54.921Z,943.23
2018-04-10T04:32:54.935Z,943.23
2018-04-10T04:33:54.956Z,943.2
2018-04-10T04:34:55.027Z,943.19
2018-04-10T04:35:54.995Z,943.21
2018-04-10T04:36:55.015Z,943.19
2018-04-10T04:37:55.037Z,943.17
2018-04-10T04:38:55.058Z,943.18
2018-04-10T04:39:55.179Z,943.13
2018-04-10T04:40:55.098Z,943.15
2018-04-10T04:41:55.121Z,943.21
2018-04-10T04:42:55.145Z,943.18
2018-04-10T04:43:55.159Z,943.19
2018-04-10T04:44:55.182Z,943.21
2018-04-10T04:45:55.202Z,943.2
2018-04-10T04:46:55.221Z,943.2
2018-04-10T04:47:55.242Z,943.19
2018-04-10T04:48:55.263Z,943.19
2018-04-10T04:49:55.284Z,943.21
2018-04-10T04:50:55.305Z,943.18
2018-04-10T04:51:55.325Z,943.18
2018-04-10T04:52:55.349Z,943.22
2018-04-10T04:53:55.366Z,943.21
2018-04-10T04:54:55.385Z,943.22
2018-04-10T04:55:55.407Z,943.22
2018-04-10T04:56:55.430Z,943.2
2018-04-10T04:57:55.447Z,943.21
2018-04-10T04:58:55.467Z,943.21
2018-04-10T04:59:55.487Z,943.21
2018-04-10T05:00:55.509Z,943.21
2018-04-10T05:01:55.529Z,943.18
2018-04-10T05:02:55.550Z,943.17
2018-04-10T05:03:55.571Z,943.2
2018-04-10T05:04:55.591Z,943.22
2018-04-10T05:05:55.611Z,943.22
2018-04-10T05:06:55.643Z,943.21
2018-04-10T05:07:55.652Z,943.21
2018-04-10T05:08:55.672Z,943.22
2018-04-10T05:09:55.694Z,943.23
2018-04-10T05:10:55.714Z,943.25
2018-04-10T05:11:55.733Z,943.24
2018-04-10T05:12:55.753Z,943.26
2018-04-10T05:13:55.774Z,943.26
2018-04-10T05:14:55.799Z,943.25
2018-04-10T05:15:55.818Z,943.26
2018-04-10T05:16:55.834Z,943.24
2018-04-10T05:17:55.861Z,943.25
2018-04-10T05:18:55.877Z,943.23
2018-04-10T05:19:55.899Z,943.24
2018-04-10T05:20:55.922Z,943.2
2018-04-10T05:21:55.939Z,943.18
2018-04-10T05:22:55.970Z,943.17
2018-04-10T05:23:55.981Z,943.19
2018-04-10T05:24:56.003Z,943.18
2018-04-10T05:25:56.023Z,943.21
2018-04-10T05:26:56.044Z,943.22
2018-04-10T05:27:56.064Z,943.25
2018-04-10T05:28:56.085Z,943.19
2018-04-10T05:29:56.133Z,943.26
2018-04-10T05:30:56.127Z,943.24
2018-04-10T05:31:56.148Z,943.22
2018-04-10T05:32:56.169Z,943.22
2018-04-10T05:33:56.193Z,943.19
2018-04-10T05:34:56.210Z,943.18
2018-04-10T05:35:56.233Z,943.17
2018-04-10T05:36:56.254Z,943.21
2018-04-10T05:37:56.273Z,943.17
2018-04-10T05:38:56.293Z,943.14
2018-04-10T05:39:56.323Z,943.15
2018-04-10T05:40:56.337Z,943.14
2018-04-10T05:41:56.358Z,943.16
2018-04-10T05:42:56.380Z,943.15
2018-04-10T05:43:56.401Z,943.15
2018-04-10T05:44:56.426Z,943.18
2018-04-10T05:45:56.443Z,943.15
2018-04-10T05:46:56.465Z,943.09
2018-04-10T05:47:56.488Z,943.1
2018-04-10T05:48:56.506Z,943.1
2018-04-10T05:49:56.528Z,943.07
2018-04-10T05:50:56.551Z,943.08
2018-04-10T05:51:56.571Z,943.07
2018-04-10T05:52:56.604Z,943.06
2018-04-10T05:53:56.615Z,943.04
2018-04-10T05:54:56.637Z,943.06
2018-04-10T05:55:56.663Z,943.08
2018-04-10T05:56:56.679Z,943.08
2018-04-10T05:57:56.702Z,943.12
2018-04-10T05:58:56.722Z,943.12
2018-04-10T05:59:56.743Z,943.14
2018-04-10T06:00:56.764Z,943.13
2018-04-10T06:01:56.786Z,943.12
2018-04-10T06:02:56.807Z,943.11
2018-04-10T06:03:56.850Z,943.09
2018-04-10T06:04:56.852Z,943.13
2018-04-10T06:05:56.873Z,943.16
2018-04-10T06:06:56.895Z,943.2
2018-04-10T06:07:56.926Z,943.24
2018-04-10T06:08:56.939Z,943.28
2018-04-10T06:09:56.968Z,943.29
2018-04-10T06:10:56.980Z,943.27
2018-04-10T06:11:57.002Z,943.25
2018-04-10T06:12:57.023Z,943.3
2018-04-10T06:13:57.046Z,943.34
2018-04-10T06:14:57.068Z,943.32
2018-04-10T06:15:57.090Z,943.36
2018-04-10T06:16:57.115Z,943.37
2018-04-10T06:17:57.183Z,943.4
2018-04-10T06:18:57.156Z,943.42
2018-04-10T06:19:57.177Z,943.36
2018-04-10T06:20:57.205Z,943.37
2018-04-10T06:21:57.221Z,943.43
2018-04-10T06:22:57.392Z,943.42
2018-04-10T06:23:57.265Z,943.44
2018-04-10T06:24:57.287Z,943.47
2018-04-10T06:25:57.309Z,943.46
2018-04-10T06:26:57.345Z,943.47
2018-04-10T06:27:57.353Z,943.5
2018-04-10T06:28:57.374Z,943.49
2018-04-10T06:29:57.397Z,943.49
2018-04-10T06:30:57.431Z,943.48
2018-04-10T06:31:57.441Z,943.46
2018-04-10T06:32:57.512Z,943.48
2018-04-10T06:33:57.481Z,943.5
2018-04-10T06:34:57.504Z,943.48
2018-04-10T06:35:57.526Z,943.48
2018-04-10T06:36:57.548Z,943.51
2018-04-10T06:37:57.571Z,943.51
2018-04-10T06:38:57.594Z,943.49
2018-04-10T06:39:57.615Z,943.51
2018-04-10T06:40:57.639Z,943.52
2018-04-10T06:41:57.662Z,943.56
2018-04-10T06:42:57.683Z,943.55
2018-04-10T06:43:57.705Z,943.53
2018-04-10T06:44:57.728Z,943.54
2018-04-10T06:45:57.751Z,943.49
2018-04-10T06:46:57.772Z,943.53
2018-04-10T06:47:57.844Z,943.52
2018-04-10T06:48:57.817Z,943.54
2018-04-10T06:49:57.840Z,943.55
2018-04-10T06:50:57.862Z,943.54
2018-04-10T06:51:57.883Z,943.52
2018-04-10T06:52:57.917Z,943.5
2018-04-10T06:53:57.931Z,943.52
2018-04-10T06:54:57.950Z,943.48
2018-04-10T06:55:57.973Z,943.51
2018-04-10T06:56:57.998Z,943.45
2018-04-10T06:57:58.021Z,943.45
2018-04-10T06:58:58.041Z,943.46
2018-04-10T06:59:58.063Z,943.45
2018-04-10T07:00:58.090Z,943.43
2018-04-10T07:01:58.110Z,943.47
2018-04-10T07:02:58.182Z,943.43
2018-04-10T07:03:58.155Z,943.45
2018-04-10T07:04:58.181Z,943.43
2018-04-10T07:05:58.200Z,943.37
2018-04-10T07:06:58.221Z,943.32
2018-04-10T07:07:58.286Z,943.33
2018-04-10T07:08:58.268Z,943.35
2018-04-10T07:09:58.289Z,943.35
2018-04-10T07:10:58.312Z,943.29
2018-04-10T07:11:58.335Z,943.31
2018-04-10T07:12:58.357Z,943.31
2018-04-10T07:13:58.381Z,943.34
2018-04-10T07:14:58.402Z,943.27
2018-04-10T07:15:58.426Z,943.26
2018-04-10T07:16:58.452Z,943.28
2018-04-10T07:17:58.521Z,943.27
2018-04-10T07:18:58.493Z,943.27
2018-04-10T07:19:58.519Z,943.22
2018-04-10T07:20:58.569Z,943.19
2018-04-10T07:21:58.561Z,943.23
2018-04-10T07:22:58.588Z,943.21
2018-04-10T07:23:58.604Z,943.16
2018-04-10T07:24:58.649Z,943.17
2018-04-10T07:25:58.650Z,943.19
2018-04-10T07:26:58.674Z,943.19
2018-04-10T07:27:58.695Z,943.19
2018-04-10T07:28:58.718Z,943.19
2018-04-10T07:29:58.742Z,943.2
2018-04-10T07:30:58.765Z,943.22
2018-04-10T07:31:58.787Z,943.25
2018-04-10T07:32:58.869Z,943.29
2018-04-10T07:33:58.835Z,943.36
2018-04-10T07:34:58.858Z,943.41
2018-04-10T07:35:58.882Z,943.42
2018-04-10T07:36:58.904Z,943.43
2018-04-10T07:37:59.128Z,943.46
2018-04-10T07:38:58.950Z,943.42
2018-04-10T07:39:58.973Z,943.44
2018-04-10T07:40:59.026Z,943.45
2018-04-10T07:41:59.020Z,943.42
2018-04-10T07:42:59.143Z,943.39
2018-04-10T07:43:59.066Z,943.42
2018-04-10T07:44:59.090Z,943.39
2018-04-10T07:45:59.116Z,943.39
2018-04-10T07:46:59.135Z,943.4
2018-04-10T07:47:59.165Z,943.39
2018-04-10T07:48:59.182Z,943.45
2018-04-10T07:49:59.206Z,943.43
2018-04-10T07:50:59.229Z,943.47
2018-04-10T07:51:59.254Z,943.5
2018-04-10T07:52:59.328Z,943.49
2018-04-10T07:53:59.302Z,943.53
2018-04-10T07:54:59.325Z,943.54
2018-04-10T07:55:59.369Z,943.51
2018-04-10T07:56:59.374Z,943.56
2018-04-10T07:57:59.396Z,943.53
2018-04-10T07:58:59.418Z,943.57
2018-04-10T07:59:59.443Z,943.59
2018-04-10T08:00:59.466Z,943.57
2018-04-10T08:01:59.491Z,943.6
2018-04-10T08:02:59.565Z,943.58
2018-04-10T08:03:59.537Z,943.54
2018-04-10T08:04:59.561Z,943.55
2018-04-10T08:05:59.585Z,943.56
2018-04-10T08:06:59.616Z,943.58
2018-04-10T08:07:59.683Z,943.61
2018-04-10T08:08:59.665Z,943.62
2018-04-10T08:09:59.681Z,943.61
2018-04-10T08:10:59.706Z,943.58
2018-04-10T08:11:59.729Z,943.62
2018-04-10T08:12:59.753Z,943.6
2018-04-10T08:13:59.778Z,943.56
2018-04-10T08:14:59.800Z,943.55
2018-04-10T08:15:59.825Z,943.57
2018-04-10T08:16:59.851Z,943.57
2018-04-10T08:17:59.873Z,943.57
2018-04-10T08:18:59.948Z,943.52
2018-04-10T08:19:59.922Z,943.52
2018-04-10T08:20:59.946Z,943.55
2018-04-10T08:21:59.970Z,943.46
2018-04-10T08:22:59.995Z,943.45
2018-04-10T08:24:00.018Z,943.43
2018-04-10T08:25:00.043Z,943.42
2018-04-10T08:26:00.066Z,943.44
2018-04-10T08:27:00.090Z,943.43
2018-04-10T08:28:00.114Z,943.46
2018-04-10T08:29:00.141Z,943.48
2018-04-10T08:30:00.161Z,943.42
2018-04-10T08:31:00.187Z,943.44
2018-04-10T08:32:00.210Z,943.44
2018-04-10T08:33:00.233Z,943.45
2018-04-10T08:34:00.408Z,943.47
2018-04-10T08:35:00.307Z,943.48
2018-04-10T08:36:00.315Z,943.48
2018-04-10T08:37:00.331Z,943.48
2018-04-10T08:38:00.357Z,943.43
2018-04-10T08:39:00.380Z,943.48
2018-04-10T08:40:00.405Z,943.43
2018-04-10T08:41:00.429Z,943.4
2018-04-10T08:42:00.454Z,943.39
2018-04-10T08:43:00.478Z,943.39
2018-04-10T08:44:00.504Z,943.39
2018-04-10T08:45:00.553Z,943.45
2018-04-10T08:46:00.557Z,943.41
2018-04-10T08:47:00.577Z,943.42
2018-04-10T08:48:00.604Z,943.38
2018-04-10T08:49:00.675Z,943.4
2018-04-10T08:50:00.651Z,943.45
2018-04-10T08:51:00.675Z,943.42
2018-04-10T08:52:00.699Z,943.39
2018-04-10T08:53:00.726Z,943.46
2018-04-10T08:54:00.749Z,943.44
2018-04-10T08:55:00.775Z,943.48
2018-04-10T08:56:00.807Z,943.45
2018-04-10T08:57:00.822Z,943.48
2018-04-10T08:58:00.848Z,943.41
2018-04-10T08:59:00.872Z,943.48
2018-04-10T09:00:00.897Z,943.43
2018-04-10T09:01:00.925Z,943.47
2018-04-10T09:02:00.951Z,943.47
2018-04-10T09:03:00.971Z,943.47
2018-04-10T09:04:01.047Z,943.42
2018-04-10T09:05:01.023Z,943.47
2018-04-10T09:06:01.048Z,943.45
2018-04-10T09:07:01.071Z,943.47
2018-04-10T09:08:01.096Z,943.47
2018-04-10T09:09:01.122Z,943.43
2018-04-10T09:10:01.147Z,943.4
2018-04-10T09:11:01.172Z,943.43
2018-04-10T09:12:01.198Z,943.42
2018-04-10T09:13:01.223Z,943.39
2018-04-10T09:14:01.248Z,943.44
2018-04-10T09:15:01.273Z,943.44
2018-04-10T09:16:01.298Z,943.44
2018-04-10T09:17:01.324Z,943.45
2018-04-10T09:18:01.348Z,943.44
2018-04-10T09:19:01.424Z,943.43
2018-04-10T09:20:01.400Z,943.41
2018-04-10T09:21:01.423Z,943.4
2018-04-10T09:22:01.460Z,943.41
2018-04-10T09:23:01.475Z,943.38
2018-04-10T09:24:01.501Z,943.4
2018-04-10T09:25:01.525Z,943.35
2018-04-10T09:26:01.552Z,943.41
2018-04-10T09:27:01.578Z,943.43
2018-04-10T09:28:01.602Z,943.42
2018-04-10T09:29:01.630Z,943.41
2018-04-10T09:30:01.654Z,943.38
2018-04-10T09:31:01.679Z,943.43
2018-04-10T09:32:01.702Z,943.39
2018-04-10T09:33:01.765Z,943.39
2018-04-10T09:34:01.804Z,943.32
2018-04-10T09:35:01.779Z,943.31
2018-04-10T09:36:01.802Z,943.33
2018-04-10T09:37:01.829Z,943.3
2018-04-10T09:38:01.856Z,943.3
2018-04-10T09:39:01.930Z,943.3
2018-04-10T09:40:01.905Z,943.35
2018-04-10T09:41:01.930Z,943.35
2018-04-10T09:42:01.956Z,943.31
2018-04-10T09:43:01.980Z,943.3
2018-04-10T09:44:02.003Z,943.31
2018-04-10T09:45:02.031Z,943.29
2018-04-10T09:46:02.055Z,943.26
2018-04-10T09:47:02.083Z,943.26
2018-04-10T09:48:02.124Z,943.27
2018-04-10T09:49:02.181Z,943.28
2018-04-10T09:50:02.156Z,943.25
2018-04-10T09:51:02.183Z,943.26
2018-04-10T09:52:02.207Z,943.25
2018-04-10T09:53:02.235Z,943.28
2018-04-10T09:54:02.334Z,943.28
2018-04-10T09:55:02.285Z,943.24
2018-04-10T09:56:02.312Z,943.19
2018-04-10T09:57:02.335Z,943.24
2018-04-10T09:58:02.359Z,943.22
2018-04-10T09:59:02.387Z,943.2
2018-04-10T10:00:02.413Z,943.21
2018-04-10T10:01:02.438Z,943.14
2018-04-10T10:02:02.464Z,943.13
2018-04-10T10:03:02.494Z,943.18
2018-04-10T10:04:02.566Z,943.15
2018-04-10T10:05:02.541Z,943.17
2018-04-10T10:06:02.566Z,943.2
2018-04-10T10:07:02.593Z,943.19
2018-04-10T10:08:02.619Z,943.19
2018-04-10T10:09:02.795Z,943.19
2018-04-10T10:10:02.669Z,943.22
2018-04-10T10:11:02.695Z,943.2
2018-04-10T10:12:02.720Z,943.17
2018-04-10T10:13:02.745Z,943.22
2018-04-10T10:14:02.772Z,943.19
2018-04-10T10:15:02.799Z,943.16
2018-04-10T10:16:02.824Z,943.21
2018-04-10T10:17:02.849Z,943.21
2018-04-10T10:18:02.874Z,943.24
2018-04-10T10:19:02.901Z,943.24
2018-04-10T10:20:02.927Z,943.23
2018-04-10T10:21:02.950Z,943.27
2018-04-10T10:22:02.976Z,943.3
2018-04-10T10:23:03.000Z,943.28
2018-04-10T10:24:03.110Z,943.32
2018-04-10T10:25:03.056Z,943.35
2018-04-10T10:26:03.146Z,943.36
2018-04-10T10:27:03.104Z,943.35
2018-04-10T10:28:03.131Z,943.37
2018-04-10T10:29:03.157Z,943.4
2018-04-10T10:30:03.183Z,943.44
2018-04-10T10:31:03.208Z,943.4
2018-04-10T10:32:03.232Z,943.41
2018-04-10T10:33:03.326Z,943.42
2018-04-10T10:34:03.283Z,943.39
2018-04-10T10:35:03.309Z,943.36
2018-04-10T10:36:03.334Z,943.35
2018-04-10T10:37:03.361Z,943.36
2018-04-10T10:38:03.387Z,943.3
2018-04-10T10:39:03.413Z,943.28
2018-04-10T10:40:03.492Z,943.33
2018-04-10T10:41:03.484Z,943.3
2018-04-10T10:42:03.490Z,943.25
2018-04-10T10:43:03.515Z,943.26
2018-04-10T10:44:03.543Z,943.23
2018-04-10T10:45:03.570Z,943.18
2018-04-10T10:46:03.597Z,943.22
2018-04-10T10:47:03.649Z,943.21
2018-04-10T10:48:03.649Z,943.25
2018-04-10T10:49:03.676Z,943.27
2018-04-10T10:50:03.703Z,943.34
2018-04-10T10:51:03.728Z,943.34
2018-04-10T10:52:03.756Z,943.38
2018-04-10T10:53:03.784Z,943.44
2018-04-10T10:54:03.811Z,943.42
2018-04-10T10:55:03.886Z,943.41
2018-04-10T10:56:03.859Z,943.36
2018-04-10T10:57:03.887Z,943.36
2018-04-10T10:58:03.926Z,943.33
2018-04-10T10:59:03.943Z,943.29
2018-04-10T11:00:03.967Z,943.28
2018-04-10T11:01:04.043Z,943.33
2018-04-10T11:02:04.023Z,943.37
2018-04-10T11:03:04.051Z,943.37
2018-04-10T11:04:04.079Z,943.41
2018-04-10T11:05:04.111Z,943.41
2018-04-10T11:06:04.135Z,943.44
2018-04-10T11:07:04.160Z,943.43
2018-04-10T11:08:04.187Z,943.41
2018-04-10T11:09:04.217Z,943.41
2018-04-10T11:10:04.246Z,943.43
2018-04-10T11:11:04.322Z,943.43
2018-04-10T11:12:04.300Z,943.45
2018-04-10T11:13:04.329Z,943.46
2018-04-10T11:14:04.356Z,943.45
2018-04-10T11:15:04.384Z,943.51
2018-04-10T11:16:04.411Z,943.46
2018-04-10T11:17:04.441Z,943.49
2018-04-10T11:18:04.470Z,943.47
2018-04-10T11:19:04.499Z,943.47
2018-04-10T11:20:04.526Z,943.47
2018-04-10T11:21:04.575Z,943.52
2018-04-10T11:22:04.585Z,943.5
2018-04-10T11:23:04.614Z,943.52
2018-04-10T11:24:04.645Z,943.51
2018-04-10T11:25:04.671Z,943.54
2018-04-10T11:26:04.751Z,943.54
2018-04-10T11:27:04.731Z,943.54
2018-04-10T11:28:04.759Z,943.54
2018-04-10T11:29:04.796Z,943.52
2018-04-10T11:30:04.818Z,943.53
2018-04-10T11:31:04.848Z,943.49
2018-04-10T11:32:04.879Z,943.49
2018-04-10T11:33:04.906Z,943.47
2018-04-10T11:34:04.936Z,943.49
2018-04-10T11:35:04.969Z,943.46
2018-04-10T11:36:04.995Z,943.47
2018-04-10T11:37:05.026Z,943.43
2018-04-10T11:38:05.055Z,943.43
2018-04-10T11:39:05.143Z,943.43
2018-04-10T11:40:05.112Z,943.41
2018-04-10T11:41:05.192Z,943.43
2018-04-10T11:42:05.172Z,943.43
2018-04-10T11:43:05.203Z,943.4
2018-04-10T11:44:05.230Z,943.43
2018-04-10T11:45:05.270Z,943.44
2018-04-10T11:46:05.288Z,943.43
2018-04-10T11:47:05.317Z,943.46
2018-04-10T11:48:05.347Z,943.43
2018-04-10T11:49:05.377Z,943.44
2018-04-10T11:50:05.406Z,943.44
2018-04-10T11:51:05.436Z,943.42
2018-04-10T11:52:05.466Z,943.43
2018-04-10T11:53:05.496Z,943.44
2018-04-10T11:54:05.525Z,943.43
2018-04-10T11:55:05.554Z,943.45
2018-04-10T11:56:05.635Z,943.42
2018-04-10T11:57:05.613Z,943.46
2018-04-10T11:58:05.641Z,943.42
2018-04-10T11:59:05.677Z,943.42
2018-04-10T12:00:05.702Z,943.43
2018-04-10T12:01:05.732Z,943.37
2018-04-10T12:02:05.818Z,943.33
2018-04-10T12:03:05.792Z,943.27
2018-04-10T12:04:05.821Z,943.28
2018-04-10T12:05:05.851Z,943.25
2018-04-10T12:06:05.880Z,943.27
2018-04-10T12:07:05.910Z,943.27
2018-04-10T12:08:05.940Z,943.24
2018-04-10T12:09:05.969Z,943.22
2018-04-10T12:10:05.999Z,943.23
2018-04-10T12:11:06.078Z,943.26
2018-04-10T12:12:06.057Z,943.31
2018-04-10T12:13:06.088Z,943.3
2018-04-10T12:14:06.117Z,943.35
2018-04-10T12:15:06.148Z,943.29
2018-04-10T12:16:06.218Z,943.31
2018-04-10T12:17:06.207Z,943.29
2018-04-10T12:18:06.254Z,943.27
2018-04-10T12:19:06.265Z,943.23
2018-04-10T12:20:06.296Z,943.25
2018-04-10T12:21:06.323Z,943.22
2018-04-10T12:22:06.357Z,943.17
2018-04-10T12:23:06.392Z,943.2
2018-04-10T12:24:06.416Z,943.18
2018-04-10T12:25:06.446Z,943.16
2018-04-10T12:26:06.528Z,943.21
2018-04-10T12:27:06.506Z,943.21
2018-04-10T12:28:06.539Z,943.2
2018-04-10T12:29:06.569Z,943.19
2018-04-10T12:30:06.601Z,943.18
2018-04-10T12:31:06.635Z,943.18